Terminal Aerodrome Forecast
Issued by NWS Blacksburg, VA

Home | Current Version | Previous Version | Text Only | Print | Product List | Glossary On
Versions: 1 2 3 4 5 6 7 8 9 10 11 12 13 14 15 16 17 18 19 20 21 22 23 24 25 26
000
FTUS41 KRNK 201129
TAFDAN
TAF
KDAN 201129Z 2012/2112 10004KT P6SM VCSH SCT040 OVC050
     FM201300 11004KT 5SM -RA BR SCT015 OVC035
      TEMPO 2014/2016 2SM RA BR OVC015
     FM201600 VRB03KT 5SM -RA BR OVC025
     FM201800 20004KT P6SM SCT015 OVC025=

USA.gov is the U.S. government's official web portal to all federal, state and local government web resources and services.